createdAt,value
2024-05-09T00:03:47.807Z,13.5906
2024-05-09T00:13:58.830Z,13.5744
2024-05-09T00:24:09.664Z,13.5483
2024-05-09T00:34:20.686Z,13.5311
2024-05-09T00:44:31.802Z,13.5086
2024-05-09T00:54:42.707Z,13.4867
2024-05-09T01:04:53.695Z,13.4572
2024-05-09T01:15:04.476Z,13.4439
2024-05-09T01:25:15.383Z,13.4156
2024-05-09T01:35:26.206Z,13.3944
2024-05-09T01:45:37.030Z,13.3775
2024-05-09T01:55:47.979Z,13.3539
2024-05-09T02:05:58.637Z,13.3347
2024-05-09T02:16:09.569Z,13.3239
2024-05-09T02:26:20.356Z,13.3069
2024-05-09T02:36:30.913Z,13.2836
2024-05-09T02:46:41.793Z,13.2650
2024-05-09T02:56:52.527Z,13.2494
2024-05-09T03:07:03.204Z,13.2364
2024-05-09T03:17:14.046Z,13.2208
2024-05-09T03:27:24.779Z,13.2069
2024-05-09T03:37:36.087Z,13.1933
2024-05-09T03:47:47.134Z,13.1856
2024-05-09T03:57:58.132Z,13.1689
2024-05-09T04:08:09.049Z,13.1556
2024-05-09T04:18:19.871Z,13.1453
2024-05-09T04:28:30.526Z,13.1294
2024-05-09T04:38:41.193Z,13.1183
2024-05-09T04:48:52.172Z,13.1092
2024-05-09T04:59:02.788Z,13.0889
2024-05-09T05:09:13.799Z,13.0861
2024-05-09T05:19:24.436Z,13.0689
2024-05-09T05:29:38.101Z,13.0640
2024-05-09T05:39:48.631Z,13.0483
2024-05-09T05:49:59.442Z,13.0433
2024-05-09T06:00:10.001Z,13.0364
2024-05-09T06:10:26.413Z,13.0258
2024-05-09T06:20:39.214Z,13.0164
2024-05-09T06:30:49.606Z,13.0086
2024-05-09T06:40:59.817Z,12.9978
2024-05-09T06:51:09.954Z,12.9908
2024-05-09T07:01:20.091Z,12.9814
2024-05-09T07:11:30.182Z,12.9856
2024-05-09T07:21:40.331Z,12.9856
2024-05-09T07:31:50.553Z,12.9786
2024-05-09T07:42:00.689Z,12.9850
2024-05-09T07:53:29.182Z,12.9828
2024-05-09T08:02:26.891Z,12.9894
2024-05-09T08:12:36.807Z,12.9911
2024-05-09T08:22:46.765Z,12.9992
2024-05-09T08:32:56.676Z,13.0092
2024-05-09T08:43:06.905Z,13.0125
2024-05-09T08:53:16.833Z,13.0203
2024-05-09T09:03:26.589Z,13.0278
2024-05-09T09:13:36.734Z,13.0347
2024-05-09T09:23:46.713Z,13.0492
2024-05-09T09:33:56.802Z,13.0589
2024-05-09T09:44:06.810Z,13.0658
2024-05-09T09:54:16.399Z,13.0833
2024-05-09T10:04:26.201Z,13.0981
2024-05-09T10:14:35.590Z,13.1075
2024-05-09T10:24:44.711Z,13.1267
2024-05-09T10:34:54.690Z,13.1431
2024-05-09T10:45:03.762Z,13.1594
2024-05-09T10:55:13.086Z,13.1875
2024-05-09T11:05:22.696Z,13.2158
2024-05-09T11:15:31.993Z,13.2442
2024-05-09T11:25:41.187Z,13.2775
2024-05-09T11:35:50.145Z,13.3031
2024-05-09T11:45:59.181Z,13.3403
2024-05-09T11:56:08.401Z,13.3783
2024-05-09T12:06:17.838Z,13.4061
2024-05-09T12:16:26.960Z,13.4422
2024-05-09T12:26:35.993Z,13.4800
2024-05-09T12:36:45.250Z,13.5194
2024-05-09T12:46:54.724Z,13.5525
2024-05-09T12:57:03.539Z,13.5869
2024-05-09T13:07:12.429Z,13.6217
2024-05-09T13:17:21.434Z,13.6586
2024-05-09T13:27:30.629Z,13.6939
2024-05-09T13:37:39.450Z,13.7275
2024-05-09T13:47:48.573Z,13.7636
2024-05-09T13:57:57.473Z,13.7978
2024-05-09T14:08:06.455Z,13.8253
2024-05-09T14:18:15.580Z,13.8644
2024-05-09T14:28:24.805Z,13.8992
2024-05-09T14:38:34.054Z,13.9289
2024-05-09T14:48:43.371Z,13.9589
2024-05-09T14:58:52.832Z,13.9900
2024-05-09T15:09:01.966Z,14.0192
2024-05-09T15:19:11.903Z,14.0547
2024-05-09T15:29:21.131Z,14.0792
2024-05-09T15:39:30.422Z,14.1028
2024-05-09T15:49:39.858Z,14.1308
2024-05-09T15:59:49.201Z,14.1561
2024-05-09T16:09:58.479Z,14.1825
2024-05-09T16:20:12.264Z,14.2092
2024-05-09T16:30:31.515Z,14.2244
2024-05-09T16:40:41.019Z,14.2447
2024-05-09T16:50:51.211Z,14.2589
2024-05-09T17:01:00.824Z,14.2786
2024-05-09T17:11:10.785Z,14.2975
2024-05-09T17:21:21.176Z,14.3092
2024-05-09T17:31:31.234Z,14.3211
2024-05-09T17:41:41.175Z,14.3400
2024-05-09T17:51:51.088Z,14.3431
2024-05-09T18:02:01.089Z,14.3536
2024-05-09T18:12:12.024Z,14.3561
2024-05-09T18:22:22.162Z,14.3628
2024-05-09T18:32:32.249Z,14.3664
2024-05-09T18:42:42.424Z,14.3650
2024-05-09T18:52:52.540Z,14.3633
2024-05-09T19:03:03.317Z,14.3664
2024-05-09T19:13:14.494Z,14.3522
2024-05-09T19:23:25.399Z,14.3492
2024-05-09T19:33:35.818Z,14.3353
2024-05-09T19:43:46.373Z,14.3317
2024-05-09T19:53:57.192Z,14.3150
2024-05-09T20:04:07.827Z,14.3039
2024-05-09T20:14:18.648Z,14.2931
2024-05-09T20:24:29.486Z,14.2800
2024-05-09T20:34:40.343Z,14.2631
2024-05-09T20:44:51.233Z,14.2483
2024-05-09T20:55:02.132Z,14.2250
2024-05-09T21:05:13.355Z,14.2114
2024-05-09T21:15:24.208Z,14.1822
2024-05-09T21:25:35.129Z,14.1642
2024-05-09T21:35:45.968Z,14.1489
2024-05-09T21:45:56.856Z,14.1228
2024-05-09T21:56:07.749Z,14.0972
2024-05-09T22:06:18.621Z,14.0719
2024-05-09T22:16:29.615Z,14.0542
2024-05-09T22:26:40.532Z,14.0247
2024-05-09T22:36:51.294Z,14.0019
2024-05-09T22:47:02.267Z,13.9711
2024-05-09T22:57:13.317Z,13.9483
2024-05-09T23:07:24.240Z,13.9194
2024-05-09T23:17:35.328Z,13.8928
2024-05-09T23:27:46.326Z,13.8650
2024-05-09T23:37:57.509Z,13.8425
2024-05-09T23:48:08.789Z,13.8069
2024-05-09T23:58:20.101Z,13.7900
